Bosham, United Kingdom
Current Conditions -  °F | °C
As of 6:20 AM on Saturday 20 Dec 2014 (Local Time) from EGHI Reporting Station
Scattered Clouds Scattered Clouds  
Wind Chill: 40°   Ceiling: Unl
Heat Index: 45°   Visibility: 6mi
Dew Point: 37°   Wind: 8mph
Humidity: 76%   Direction: 260°W
Pressure: 30.3"   Gusts: NA
Location:  50.83°N, 0.85°W
Report Text: EGHI 200620Z 26007KT 240V300 9999 FEW030 SCT035 07/03 Q1026
Loading
Personal Weather Stations






























Interactive Weather Map New forecast layout! Learn more

10-Day Weather Forecast

Advertisements
Track Severe Weather on mobile